sensor_id;sensor_type;location;lat;lon;timestamp;P1;durP1;ratioP1;P2;durP2;ratioP2
11829;SDS011;5972;42.134;24.718;2022-08-21T00:00:12;9.35;;;4.75;;
11829;SDS011;5972;42.134;24.718;2022-08-21T00:02:44;13.98;;;5.10;;
11829;SDS011;5972;42.134;24.718;2022-08-21T00:05:13;9.68;;;5.03;;
11829;SDS011;5972;42.134;24.718;2022-08-21T00:07:40;9.95;;;4.80;;
11829;SDS011;5972;42.134;24.718;2022-08-21T00:10:07;10.50;;;4.75;;
11829;SDS011;5972;42.134;24.718;2022-08-21T00:12:36;10.45;;;5.25;;
11829;SDS011;5972;42.134;24.718;2022-08-21T00:15:03;7.82;;;5.30;;
11829;SDS011;5972;42.134;24.718;2022-08-21T00:17:31;13.30;;;5.35;;
11829;SDS011;5972;42.134;24.718;2022-08-21T00:19:58;10.55;;;5.13;;
11829;SDS011;5972;42.134;24.718;2022-08-21T00:22:25;13.00;;;5.40;;
11829;SDS011;5972;42.134;24.718;2022-08-21T00:24:55;10.90;;;5.07;;
11829;SDS011;5972;42.134;24.718;2022-08-21T00:27:22;14.73;;;5.50;;
11829;SDS011;5972;42.134;24.718;2022-08-21T00:29:50;8.90;;;4.85;;
11829;SDS011;5972;42.134;24.718;2022-08-21T00:32:21;11.60;;;5.15;;
11829;SDS011;5972;42.134;24.718;2022-08-21T00:34:49;8.38;;;5.05;;
11829;SDS011;5972;42.134;24.718;2022-08-21T00:37:17;10.23;;;5.85;;
11829;SDS011;5972;42.134;24.718;2022-08-21T00:39:43;11.55;;;5.40;;
11829;SDS011;5972;42.134;24.718;2022-08-21T00:42:11;12.02;;;4.63;;
11829;SDS011;5972;42.134;24.718;2022-08-21T00:44:40;7.50;;;5.00;;
11829;SDS011;5972;42.134;24.718;2022-08-21T00:47:08;7.97;;;4.78;;
11829;SDS011;5972;42.134;24.718;2022-08-21T00:49:35;10.35;;;4.72;;
11829;SDS011;5972;42.134;24.718;2022-08-21T00:52:03;9.25;;;5.30;;
11829;SDS011;5972;42.134;24.718;2022-08-21T00:54:33;10.63;;;5.65;;
11829;SDS011;5972;42.134;24.718;2022-08-21T00:57:03;7.22;;;5.10;;
11829;SDS011;5972;42.134;24.718;2022-08-21T00:59:38;9.90;;;4.60;;
11829;SDS011;5972;42.134;24.718;2022-08-21T01:02:11;10.10;;;5.00;;
11829;SDS011;5972;42.134;24.718;2022-08-21T01:04:38;11.55;;;4.60;;
11829;SDS011;5972;42.134;24.718;2022-08-21T01:07:06;10.40;;;4.75;;
11829;SDS011;5972;42.134;24.718;2022-08-21T01:09:33;9.43;;;4.63;;
11829;SDS011;5972;42.134;24.718;2022-08-21T01:12:00;9.50;;;4.72;;
11829;SDS011;5972;42.134;24.718;2022-08-21T01:14:28;10.98;;;5.13;;
11829;SDS011;5972;42.134;24.718;2022-08-21T01:16:55;7.20;;;4.60;;
11829;SDS011;5972;42.134;24.718;2022-08-21T01:19:26;11.20;;;5.00;;
11829;SDS011;5972;42.134;24.718;2022-08-21T01:21:55;10.75;;;4.88;;
11829;SDS011;5972;42.134;24.718;2022-08-21T01:24:22;10.82;;;4.75;;
11829;SDS011;5972;42.134;24.718;2022-08-21T01:26:49;11.00;;;4.72;;
11829;SDS011;5972;42.134;24.718;2022-08-21T01:29:20;7.13;;;4.47;;
11829;SDS011;5972;42.134;24.718;2022-08-21T01:31:55;12.23;;;5.47;;
11829;SDS011;5972;42.134;24.718;2022-08-21T01:34:22;10.90;;;5.10;;
11829;SDS011;5972;42.134;24.718;2022-08-21T01:36:49;12.05;;;4.65;;
11829;SDS011;5972;42.134;24.718;2022-08-21T01:39:17;10.95;;;4.68;;
11829;SDS011;5972;42.134;24.718;2022-08-21T01:41:44;10.82;;;4.85;;
11829;SDS011;5972;42.134;24.718;2022-08-21T01:44:11;10.52;;;4.70;;
11829;SDS011;5972;42.134;24.718;2022-08-21T01:46:38;13.05;;;4.85;;
11829;SDS011;5972;42.134;24.718;2022-08-21T01:49:05;7.22;;;4.60;;
11829;SDS011;5972;42.134;24.718;2022-08-21T01:51:32;8.02;;;4.70;;
11829;SDS011;5972;42.134;24.718;2022-08-21T01:53:59;11.88;;;5.35;;
11829;SDS011;5972;42.134;24.718;2022-08-21T01:56:27;11.48;;;5.35;;
11829;SDS011;5972;42.134;24.718;2022-08-21T01:58:54;9.70;;;5.65;;
11829;SDS011;5972;42.134;24.718;2022-08-21T02:01:21;10.13;;;5.55;;
11829;SDS011;5972;42.134;24.718;2022-08-21T02:03:49;10.98;;;6.03;;
11829;SDS011;5972;42.134;24.718;2022-08-21T02:06:16;10.60;;;5.57;;
11829;SDS011;5972;42.134;24.718;2022-08-21T02:08:43;11.60;;;5.38;;
11829;SDS011;5972;42.134;24.718;2022-08-21T02:11:10;9.73;;;6.00;;
11829;SDS011;5972;42.134;24.718;2022-08-21T02:13:39;11.27;;;5.50;;
11829;SDS011;5972;42.134;24.718;2022-08-21T02:16:06;8.50;;;5.38;;
11829;SDS011;5972;42.134;24.718;2022-08-21T02:18:33;9.35;;;5.35;;
11829;SDS011;5972;42.134;24.718;2022-08-21T02:21:00;9.43;;;4.90;;
11829;SDS011;5972;42.134;24.718;2022-08-21T02:23:28;6.70;;;5.20;;
11829;SDS011;5972;42.134;24.718;2022-08-21T02:25:56;11.15;;;5.25;;
11829;SDS011;5972;42.134;24.718;2022-08-21T02:28:23;10.93;;;5.57;;
11829;SDS011;5972;42.134;24.718;2022-08-21T02:30:53;8.90;;;5.53;;
11829;SDS011;5972;42.134;24.718;2022-08-21T02:33:21;12.10;;;7.50;;
11829;SDS011;5972;42.134;24.718;2022-08-21T02:35:48;12.50;;;7.82;;
11829;SDS011;5972;42.134;24.718;2022-08-21T02:38:16;15.38;;;7.97;;
11829;SDS011;5972;42.134;24.718;2022-08-21T02:40:46;13.77;;;7.82;;
11829;SDS011;5972;42.134;24.718;2022-08-21T02:43:14;8.40;;;7.50;;
11829;SDS011;5972;42.134;24.718;2022-08-21T02:45:43;11.30;;;7.38;;
11829;SDS011;5972;42.134;24.718;2022-08-21T02:48:12;11.45;;;7.50;;
11829;SDS011;5972;42.134;24.718;2022-08-21T02:50:43;11.48;;;7.65;;
11829;SDS011;5972;42.134;24.718;2022-08-21T02:53:14;9.80;;;7.47;;
11829;SDS011;5972;42.134;24.718;2022-08-21T02:55:42;13.63;;;8.10;;
11829;SDS011;5972;42.134;24.718;2022-08-21T02:58:11;11.93;;;7.65;;
11829;SDS011;5972;42.134;24.718;2022-08-21T03:00:39;14.98;;;8.23;;
11829;SDS011;5972;42.134;24.718;2022-08-21T03:03:06;10.88;;;8.77;;
11829;SDS011;5972;42.134;24.718;2022-08-21T03:05:36;13.55;;;8.32;;
11829;SDS011;5972;42.134;24.718;2022-08-21T03:08:04;12.90;;;8.88;;
11829;SDS011;5972;42.134;24.718;2022-08-21T03:10:34;13.50;;;8.68;;
11829;SDS011;5972;42.134;24.718;2022-08-21T03:13:01;15.35;;;9.10;;
11829;SDS011;5972;42.134;24.718;2022-08-21T03:15:28;12.38;;;8.10;;
11829;SDS011;5972;42.134;24.718;2022-08-21T03:17:56;16.35;;;8.70;;
11829;SDS011;5972;42.134;24.718;2022-08-21T03:20:23;14.38;;;8.15;;
11829;SDS011;5972;42.134;24.718;2022-08-21T03:22:53;11.88;;;8.20;;
11829;SDS011;5972;42.134;24.718;2022-08-21T03:25:21;12.00;;;7.82;;
11829;SDS011;5972;42.134;24.718;2022-08-21T03:27:49;18.75;;;7.78;;
11829;SDS011;5972;42.134;24.718;2022-08-21T03:30:17;13.00;;;7.70;;
11829;SDS011;5972;42.134;24.718;2022-08-21T03:32:45;13.00;;;7.88;;
11829;SDS011;5972;42.134;24.718;2022-08-21T03:35:12;13.95;;;7.43;;
11829;SDS011;5972;42.134;24.718;2022-08-21T03:37:39;9.10;;;7.30;;
11829;SDS011;5972;42.134;24.718;2022-08-21T03:40:08;12.80;;;8.07;;
11829;SDS011;5972;42.134;24.718;2022-08-21T03:42:40;13.38;;;7.63;;
11829;SDS011;5972;42.134;24.718;2022-08-21T03:45:08;10.98;;;7.53;;
11829;SDS011;5972;42.134;24.718;2022-08-21T03:47:35;9.30;;;7.53;;
11829;SDS011;5972;42.134;24.718;2022-08-21T03:50:02;13.05;;;7.75;;
11829;SDS011;5972;42.134;24.718;2022-08-21T03:52:30;12.93;;;7.57;;
11829;SDS011;5972;42.134;24.718;2022-08-21T03:54:57;8.88;;;6.60;;
11829;SDS011;5972;42.134;24.718;2022-08-21T03:57:25;9.48;;;6.13;;
11829;SDS011;5972;42.134;24.718;2022-08-21T03:59:52;14.50;;;6.82;;
11829;SDS011;5972;42.134;24.718;2022-08-21T04:02:19;13.07;;;6.60;;
11829;SDS011;5972;42.134;24.718;2022-08-21T04:04:47;7.35;;;5.43;;
11829;SDS011;5972;42.134;24.718;2022-08-21T04:07:14;10.90;;;6.10;;
11829;SDS011;5972;42.134;24.718;2022-08-21T04:09:41;11.82;;;5.82;;
11829;SDS011;5972;42.134;24.718;2022-08-21T04:12:07;9.90;;;5.90;;
11829;SDS011;5972;42.134;24.718;2022-08-21T04:14:36;9.68;;;6.15;;
11829;SDS011;5972;42.134;24.718;2022-08-21T04:17:03;12.35;;;6.53;;
11829;SDS011;5972;42.134;24.718;2022-08-21T04:19:30;8.70;;;5.82;;
11829;SDS011;5972;42.134;24.718;2022-08-21T04:21:57;10.77;;;5.95;;
11829;SDS011;5972;42.134;24.718;2022-08-21T04:24:24;9.52;;;5.90;;
11829;SDS011;5972;42.134;24.718;2022-08-21T04:26:50;9.30;;;5.80;;
11829;SDS011;5972;42.134;24.718;2022-08-21T04:29:17;10.00;;;5.80;;
11829;SDS011;5972;42.134;24.718;2022-08-21T04:31:46;9.95;;;5.40;;
11829;SDS011;5972;42.134;24.718;2022-08-21T04:34:13;9.80;;;5.43;;
11829;SDS011;5972;42.134;24.718;2022-08-21T04:36:39;10.35;;;6.07;;
11829;SDS011;5972;42.134;24.718;2022-08-21T04:39:06;8.63;;;5.63;;
11829;SDS011;5972;42.134;24.718;2022-08-21T04:41:33;10.23;;;6.40;;
11829;SDS011;5972;42.134;24.718;2022-08-21T04:44:01;10.73;;;6.20;;
11829;SDS011;5972;42.134;24.718;2022-08-21T04:46:28;9.40;;;6.30;;
11829;SDS011;5972;42.134;24.718;2022-08-21T04:48:56;12.88;;;6.50;;
11829;SDS011;5972;42.134;24.718;2022-08-21T04:51:24;7.97;;;5.90;;
11829;SDS011;5972;42.134;24.718;2022-08-21T04:53:55;8.15;;;5.80;;
11829;SDS011;5972;42.134;24.718;2022-08-21T04:56:26;11.25;;;5.85;;
11829;SDS011;5972;42.134;24.718;2022-08-21T04:58:58;7.72;;;5.78;;
11829;SDS011;5972;42.134;24.718;2022-08-21T05:01:28;9.80;;;6.43;;
11829;SDS011;5972;42.134;24.718;2022-08-21T05:04:00;13.55;;;6.47;;
11829;SDS011;5972;42.134;24.718;2022-08-21T05:06:31;14.43;;;6.55;;
11829;SDS011;5972;42.134;24.718;2022-08-21T05:09:02;10.50;;;6.35;;
11829;SDS011;5972;42.134;24.718;2022-08-21T05:11:30;10.32;;;6.35;;
11829;SDS011;5972;42.134;24.718;2022-08-21T05:13:57;10.15;;;6.32;;
11829;SDS011;5972;42.134;24.718;2022-08-21T05:16:25;11.13;;;6.35;;
11829;SDS011;5972;42.134;24.718;2022-08-21T05:18:51;9.82;;;6.32;;
11829;SDS011;5972;42.134;24.718;2022-08-21T05:21:20;10.43;;;7.18;;
11829;SDS011;5972;42.134;24.718;2022-08-21T05:23:47;10.82;;;6.60;;
11829;SDS011;5972;42.134;24.718;2022-08-21T05:26:13;12.07;;;7.20;;
11829;SDS011;5972;42.134;24.718;2022-08-21T05:28:40;11.73;;;6.53;;
11829;SDS011;5972;42.134;24.718;2022-08-21T05:31:07;9.50;;;7.60;;
11829;SDS011;5972;42.134;24.718;2022-08-21T05:33:34;14.05;;;7.70;;
11829;SDS011;5972;42.134;24.718;2022-08-21T05:36:01;9.90;;;7.40;;
11829;SDS011;5972;42.134;24.718;2022-08-21T05:38:32;11.00;;;7.78;;
11829;SDS011;5972;42.134;24.718;2022-08-21T05:40:59;11.63;;;7.00;;
11829;SDS011;5972;42.134;24.718;2022-08-21T05:43:25;9.65;;;6.82;;
11829;SDS011;5972;42.134;24.718;2022-08-21T05:45:52;9.63;;;6.38;;
11829;SDS011;5972;42.134;24.718;2022-08-21T05:48:20;10.40;;;5.95;;
11829;SDS011;5972;42.134;24.718;2022-08-21T05:50:49;9.27;;;5.63;;
11829;SDS011;5972;42.134;24.718;2022-08-21T05:53:17;10.73;;;6.20;;
11829;SDS011;5972;42.134;24.718;2022-08-21T05:55:47;11.32;;;6.07;;
11829;SDS011;5972;42.134;24.718;2022-08-21T05:58:15;12.48;;;6.40;;
11829;SDS011;5972;42.134;24.718;2022-08-21T06:00:44;11.90;;;6.55;;
11829;SDS011;5972;42.134;24.718;2022-08-21T06:03:12;9.57;;;6.53;;
11829;SDS011;5972;42.134;24.718;2022-08-21T06:05:42;9.75;;;6.50;;
11829;SDS011;5972;42.134;24.718;2022-08-21T06:08:09;15.82;;;6.25;;
11829;SDS011;5972;42.134;24.718;2022-08-21T06:10:35;9.73;;;6.05;;
11829;SDS011;5972;42.134;24.718;2022-08-21T06:13:04;9.27;;;6.50;;
11829;SDS011;5972;42.134;24.718;2022-08-21T06:15:31;8.55;;;5.78;;
11829;SDS011;5972;42.134;24.718;2022-08-21T06:17:58;11.43;;;6.45;;
11829;SDS011;5972;42.134;24.718;2022-08-21T06:20:25;10.00;;;6.63;;
11829;SDS011;5972;42.134;24.718;2022-08-21T06:22:52;12.65;;;6.22;;
11829;SDS011;5972;42.134;24.718;2022-08-21T06:25:19;11.63;;;6.93;;
11829;SDS011;5972;42.134;24.718;2022-08-21T06:27:46;10.18;;;6.80;;
11829;SDS011;5972;42.134;24.718;2022-08-21T06:30:14;8.25;;;6.25;;
11829;SDS011;5972;42.134;24.718;2022-08-21T06:32:41;10.35;;;6.80;;
11829;SDS011;5972;42.134;24.718;2022-08-21T06:35:08;8.45;;;6.35;;
11829;SDS011;5972;42.134;24.718;2022-08-21T06:37:36;9.65;;;5.90;;
11829;SDS011;5972;42.134;24.718;2022-08-21T06:40:04;9.75;;;6.03;;
11829;SDS011;5972;42.134;24.718;2022-08-21T06:42:31;14.43;;;6.88;;
11829;SDS011;5972;42.134;24.718;2022-08-21T06:44:58;9.93;;;6.30;;
11829;SDS011;5972;42.134;24.718;2022-08-21T06:47:26;10.68;;;6.35;;
11829;SDS011;5972;42.134;24.718;2022-08-21T06:49:53;11.60;;;6.38;;
11829;SDS011;5972;42.134;24.718;2022-08-21T06:52:20;11.48;;;5.78;;
11829;SDS011;5972;42.134;24.718;2022-08-21T06:54:47;14.23;;;6.18;;
11829;SDS011;5972;42.134;24.718;2022-08-21T06:57:15;11.27;;;6.20;;
11829;SDS011;5972;42.134;24.718;2022-08-21T06:59:42;13.20;;;6.50;;
11829;SDS011;5972;42.134;24.718;2022-08-21T07:02:09;9.90;;;5.82;;
11829;SDS011;5972;42.134;24.718;2022-08-21T07:04:37;12.43;;;5.60;;
11829;SDS011;5972;42.134;24.718;2022-08-21T07:07:04;10.15;;;5.80;;
11829;SDS011;5972;42.134;24.718;2022-08-21T07:09:30;10.68;;;5.97;;
11829;SDS011;5972;42.134;24.718;2022-08-21T07:11:57;12.20;;;5.75;;
11829;SDS011;5972;42.134;24.718;2022-08-21T07:14:24;13.10;;;5.82;;
11829;SDS011;5972;42.134;24.718;2022-08-21T07:16:51;10.52;;;6.07;;
11829;SDS011;5972;42.134;24.718;2022-08-21T07:19:18;9.43;;;5.75;;
11829;SDS011;5972;42.134;24.718;2022-08-21T07:21:46;8.40;;;5.70;;
11829;SDS011;5972;42.134;24.718;2022-08-21T07:24:14;14.82;;;6.38;;
11829;SDS011;5972;42.134;24.718;2022-08-21T07:26:41;11.30;;;6.45;;
11829;SDS011;5972;42.134;24.718;2022-08-21T07:29:08;12.88;;;6.22;;
11829;SDS011;5972;42.134;24.718;2022-08-21T07:31:35;11.38;;;6.30;;
11829;SDS011;5972;42.134;24.718;2022-08-21T07:34:02;13.80;;;6.15;;
11829;SDS011;5972;42.134;24.718;2022-08-21T07:36:28;9.60;;;5.72;;
11829;SDS011;5972;42.134;24.718;2022-08-21T07:38:57;10.82;;;6.15;;
11829;SDS011;5972;42.134;24.718;2022-08-21T07:41:25;10.98;;;6.30;;
11829;SDS011;5972;42.134;24.718;2022-08-21T07:43:54;11.15;;;6.10;;
11829;SDS011;5972;42.134;24.718;2022-08-21T07:46:22;11.07;;;6.35;;
11829;SDS011;5972;42.134;24.718;2022-08-21T07:48:50;10.00;;;5.55;;
11829;SDS011;5972;42.134;24.718;2022-08-21T07:51:17;10.27;;;5.90;;
11829;SDS011;5972;42.134;24.718;2022-08-21T07:53:47;11.70;;;6.28;;
11829;SDS011;5972;42.134;24.718;2022-08-21T07:56:17;10.80;;;5.70;;
11829;SDS011;5972;42.134;24.718;2022-08-21T07:58:44;10.95;;;5.88;;
11829;SDS011;5972;42.134;24.718;2022-08-21T08:01:11;10.63;;;5.30;;
11829;SDS011;5972;42.134;24.718;2022-08-21T08:03:38;8.13;;;5.80;;
11829;SDS011;5972;42.134;24.718;2022-08-21T08:06:06;9.00;;;5.53;;
11829;SDS011;5972;42.134;24.718;2022-08-21T08:08:37;11.02;;;6.05;;
11829;SDS011;5972;42.134;24.718;2022-08-21T08:11:04;9.10;;;5.38;;
11829;SDS011;5972;42.134;24.718;2022-08-21T08:13:37;10.10;;;6.07;;
11829;SDS011;5972;42.134;24.718;2022-08-21T08:16:05;8.68;;;5.95;;
11829;SDS011;5972;42.134;24.718;2022-08-21T08:18:32;11.50;;;6.22;;
11829;SDS011;5972;42.134;24.718;2022-08-21T08:20:59;13.52;;;6.78;;
11829;SDS011;5972;42.134;24.718;2022-08-21T08:23:26;15.65;;;7.70;;
11829;SDS011;5972;42.134;24.718;2022-08-21T08:25:52;14.30;;;7.18;;
11829;SDS011;5972;42.134;24.718;2022-08-21T08:28:19;16.27;;;8.23;;
11829;SDS011;5972;42.134;24.718;2022-08-21T08:30:48;16.73;;;7.95;;
11829;SDS011;5972;42.134;24.718;2022-08-21T08:33:15;13.68;;;6.93;;
11829;SDS011;5972;42.134;24.718;2022-08-21T08:35:44;9.02;;;6.38;;
11829;SDS011;5972;42.134;24.718;2022-08-21T08:38:13;11.07;;;6.40;;
11829;SDS011;5972;42.134;24.718;2022-08-21T08:40:44;8.70;;;5.80;;
11829;SDS011;5972;42.134;24.718;2022-08-21T08:43:17;8.80;;;5.70;;
11829;SDS011;5972;42.134;24.718;2022-08-21T08:45:46;13.48;;;6.20;;
11829;SDS011;5972;42.134;24.718;2022-08-21T08:48:21;16.05;;;6.03;;
11829;SDS011;5972;42.134;24.718;2022-08-21T08:51:01;12.68;;;6.03;;
11829;SDS011;5972;42.134;24.718;2022-08-21T08:53:32;10.77;;;5.28;;
11829;SDS011;5972;42.134;24.718;2022-08-21T08:56:03;20.10;;;6.47;;
11829;SDS011;5972;42.134;24.718;2022-08-21T08:58:32;11.00;;;6.07;;
11829;SDS011;5972;42.134;24.718;2022-08-21T09:01:05;11.68;;;6.10;;
11829;SDS011;5972;42.134;24.718;2022-08-21T09:03:39;11.00;;;5.30;;
11829;SDS011;5972;42.134;24.718;2022-08-21T09:06:07;11.05;;;5.75;;
11829;SDS011;5972;42.134;24.718;2022-08-21T09:08:46;13.07;;;6.07;;
11829;SDS011;5972;42.134;24.718;2022-08-21T09:11:23;8.25;;;5.40;;
11829;SDS011;5972;42.134;24.718;2022-08-21T09:13:56;14.50;;;5.95;;
11829;SDS011;5972;42.134;24.718;2022-08-21T09:16:39;9.00;;;5.38;;
11829;SDS011;5972;42.134;24.718;2022-08-21T09:19:17;13.07;;;5.78;;
11829;SDS011;5972;42.134;24.718;2022-08-21T09:21:57;9.43;;;5.40;;
11829;SDS011;5972;42.134;24.718;2022-08-21T09:24:47;9.77;;;5.95;;
11829;SDS011;5972;42.134;24.718;2022-08-21T09:27:26;11.27;;;5.70;;
11829;SDS011;5972;42.134;24.718;2022-08-21T09:29:54;6.75;;;5.18;;
11829;SDS011;5972;42.134;24.718;2022-08-21T09:32:24;8.18;;;5.47;;
11829;SDS011;5972;42.134;24.718;2022-08-21T09:34:57;10.23;;;5.20;;
11829;SDS011;5972;42.134;24.718;2022-08-21T09:37:25;11.45;;;5.70;;
11829;SDS011;5972;42.134;24.718;2022-08-21T09:39:54;9.77;;;6.13;;
11829;SDS011;5972;42.134;24.718;2022-08-21T09:42:23;8.52;;;4.82;;
11829;SDS011;5972;42.134;24.718;2022-08-21T09:45:04;12.02;;;5.32;;
11829;SDS011;5972;42.134;24.718;2022-08-21T09:47:35;12.10;;;5.32;;
11829;SDS011;5972;42.134;24.718;2022-08-21T09:50:14;8.70;;;5.05;;
11829;SDS011;5972;42.134;24.718;2022-08-21T09:52:43;9.60;;;5.60;;
11829;SDS011;5972;42.134;24.718;2022-08-21T09:55:17;10.25;;;5.80;;
11829;SDS011;5972;42.134;24.718;2022-08-21T09:58:06;9.25;;;6.10;;
11829;SDS011;5972;42.134;24.718;2022-08-21T10:00:34;7.00;;;5.88;;
11829;SDS011;5972;42.134;24.718;2022-08-21T10:03:09;11.10;;;5.88;;
11829;SDS011;5972;42.134;24.718;2022-08-21T10:05:38;9.20;;;6.65;;
11829;SDS011;5972;42.134;24.718;2022-08-21T10:08:15;11.30;;;6.07;;
11829;SDS011;5972;42.134;24.718;2022-08-21T10:10:43;9.00;;;6.35;;
11829;SDS011;5972;42.134;24.718;2022-08-21T10:13:12;10.57;;;6.57;;
11829;SDS011;5972;42.134;24.718;2022-08-21T10:15:46;10.70;;;7.15;;
11829;SDS011;5972;42.134;24.718;2022-08-21T10:18:21;12.73;;;6.95;;
11829;SDS011;5972;42.134;24.718;2022-08-21T10:20:56;15.55;;;7.90;;
11829;SDS011;5972;42.134;24.718;2022-08-21T10:23:32;12.73;;;7.05;;
11829;SDS011;5972;42.134;24.718;2022-08-21T10:26:09;13.10;;;7.18;;
11829;SDS011;5972;42.134;24.718;2022-08-21T10:29:03;14.30;;;7.32;;
11829;SDS011;5972;42.134;24.718;2022-08-21T10:31:43;13.50;;;7.43;;
11829;SDS011;5972;42.134;24.718;2022-08-21T10:34:20;20.63;;;8.05;;
11829;SDS011;5972;42.134;24.718;2022-08-21T10:37:03;17.35;;;7.20;;
11829;SDS011;5972;42.134;24.718;2022-08-21T10:39:41;18.98;;;7.95;;
11829;SDS011;5972;42.134;24.718;2022-08-21T10:42:22;14.27;;;8.90;;
11829;SDS011;5972;42.134;24.718;2022-08-21T10:44:57;19.90;;;9.38;;
11829;SDS011;5972;42.134;24.718;2022-08-21T10:47:41;21.52;;;10.57;;
11829;SDS011;5972;42.134;24.718;2022-08-21T10:50:17;15.68;;;9.77;;
11829;SDS011;5972;42.134;24.718;2022-08-21T10:52:56;14.18;;;9.88;;
11829;SDS011;5972;42.134;24.718;2022-08-21T10:55:41;16.38;;;9.32;;
11829;SDS011;5972;42.134;24.718;2022-08-21T10:58:22;13.55;;;8.50;;
11829;SDS011;5972;42.134;24.718;2022-08-21T11:00:55;14.38;;;9.05;;
11829;SDS011;5972;42.134;24.718;2022-08-21T11:03:29;13.43;;;9.00;;
11829;SDS011;5972;42.134;24.718;2022-08-21T11:06:02;12.90;;;9.23;;
11829;SDS011;5972;42.134;24.718;2022-08-21T11:08:37;13.68;;;9.48;;
11829;SDS011;5972;42.134;24.718;2022-08-21T11:11:08;17.05;;;8.65;;
11829;SDS011;5972;42.134;24.718;2022-08-21T11:13:40;17.63;;;9.23;;
11829;SDS011;5972;42.134;24.718;2022-08-21T11:16:12;13.80;;;9.48;;
11829;SDS011;5972;42.134;24.718;2022-08-21T11:18:46;14.85;;;8.85;;
11829;SDS011;5972;42.134;24.718;2022-08-21T11:21:26;10.52;;;8.68;;
11829;SDS011;5972;42.134;24.718;2022-08-21T11:24:01;10.35;;;8.02;;
11829;SDS011;5972;42.134;24.718;2022-08-21T11:26:43;11.18;;;7.85;;
11829;SDS011;5972;42.134;24.718;2022-08-21T11:29:16;13.95;;;8.45;;
11829;SDS011;5972;42.134;24.718;2022-08-21T11:31:52;14.55;;;7.60;;
11829;SDS011;5972;42.134;24.718;2022-08-21T11:34:35;13.07;;;8.35;;
11829;SDS011;5972;42.134;24.718;2022-08-21T11:37:15;15.48;;;8.32;;
11829;SDS011;5972;42.134;24.718;2022-08-21T11:39:50;11.02;;;7.70;;
11829;SDS011;5972;42.134;24.718;2022-08-21T11:42:24;12.63;;;8.18;;
11829;SDS011;5972;42.134;24.718;2022-08-21T11:45:03;11.13;;;8.38;;
11829;SDS011;5972;42.134;24.718;2022-08-21T11:47:45;18.98;;;8.20;;
11829;SDS011;5972;42.134;24.718;2022-08-21T11:50:21;10.15;;;8.00;;
11829;SDS011;5972;42.134;24.718;2022-08-21T11:53:01;14.68;;;8.00;;
11829;SDS011;5972;42.134;24.718;2022-08-21T11:55:35;14.68;;;7.63;;
11829;SDS011;5972;42.134;24.718;2022-08-21T11:58:08;13.07;;;8.18;;
11829;SDS011;5972;42.134;24.718;2022-08-21T12:00:43;13.23;;;8.15;;
11829;SDS011;5972;42.134;24.718;2022-08-21T12:03:14;11.90;;;7.25;;
11829;SDS011;5972;42.134;24.718;2022-08-21T12:05:51;13.80;;;8.15;;
11829;SDS011;5972;42.134;24.718;2022-08-21T12:08:28;13.00;;;8.20;;
11829;SDS011;5972;42.134;24.718;2022-08-21T12:11:02;14.82;;;8.07;;
11829;SDS011;5972;42.134;24.718;2022-08-21T12:13:32;13.75;;;8.18;;
11829;SDS011;5972;42.134;24.718;2022-08-21T12:16:07;14.27;;;8.73;;
11829;SDS011;5972;42.134;24.718;2022-08-21T12:18:36;12.52;;;8.60;;
11829;SDS011;5972;42.134;24.718;2022-08-21T12:21:05;10.70;;;7.82;;
11829;SDS011;5972;42.134;24.718;2022-08-21T12:23:46;11.77;;;7.30;;
11829;SDS011;5972;42.134;24.718;2022-08-21T12:26:20;12.05;;;8.38;;
11829;SDS011;5972;42.134;24.718;2022-08-21T12:29:02;9.27;;;8.38;;
11829;SDS011;5972;42.134;24.718;2022-08-21T12:31:56;14.45;;;8.38;;
11829;SDS011;5972;42.134;24.718;2022-08-21T12:34:27;12.52;;;8.80;;
11829;SDS011;5972;42.134;24.718;2022-08-21T12:36:59;14.63;;;8.95;;
11829;SDS011;5972;42.134;24.718;2022-08-21T12:39:31;16.70;;;8.95;;
11829;SDS011;5972;42.134;24.718;2022-08-21T12:42:00;10.90;;;8.57;;
11829;SDS011;5972;42.134;24.718;2022-08-21T12:44:37;13.30;;;8.50;;
11829;SDS011;5972;42.134;24.718;2022-08-21T12:47:14;13.23;;;8.20;;
11829;SDS011;5972;42.134;24.718;2022-08-21T12:49:46;14.07;;;7.68;;
11829;SDS011;5972;42.134;24.718;2022-08-21T12:52:21;9.65;;;7.22;;
11829;SDS011;5972;42.134;24.718;2022-08-21T12:54:53;11.02;;;6.03;;
11829;SDS011;5972;42.134;24.718;2022-08-21T12:57:21;11.88;;;6.13;;
11829;SDS011;5972;42.134;24.718;2022-08-21T12:59:54;8.55;;;5.93;;
11829;SDS011;5972;42.134;24.718;2022-08-21T13:02:24;8.90;;;5.78;;
11829;SDS011;5972;42.134;24.718;2022-08-21T13:04:54;11.55;;;6.07;;
11829;SDS011;5972;42.134;24.718;2022-08-21T13:07:24;11.07;;;6.38;;
11829;SDS011;5972;42.134;24.718;2022-08-21T13:09:56;7.55;;;5.93;;
11829;SDS011;5972;42.134;24.718;2022-08-21T13:12:25;8.65;;;6.15;;
11829;SDS011;5972;42.134;24.718;2022-08-21T13:14:55;9.30;;;5.80;;
11829;SDS011;5972;42.134;24.718;2022-08-21T13:17:24;10.38;;;5.90;;
11829;SDS011;5972;42.134;24.718;2022-08-21T13:19:53;8.93;;;5.28;;
11829;SDS011;5972;42.134;24.718;2022-08-21T13:22:24;6.25;;;5.05;;
11829;SDS011;5972;42.134;24.718;2022-08-21T13:24:52;6.20;;;4.85;;
11829;SDS011;5972;42.134;24.718;2022-08-21T13:27:23;9.98;;;5.60;;
11829;SDS011;5972;42.134;24.718;2022-08-21T13:30:09;11.40;;;5.50;;
11829;SDS011;5972;42.134;24.718;2022-08-21T13:32:39;9.30;;;5.55;;
11829;SDS011;5972;42.134;24.718;2022-08-21T13:35:09;7.57;;;5.60;;
11829;SDS011;5972;42.134;24.718;2022-08-21T13:37:39;13.13;;;5.90;;
11829;SDS011;5972;42.134;24.718;2022-08-21T13:40:07;9.32;;;6.00;;
11829;SDS011;5972;42.134;24.718;2022-08-21T13:42:40;9.07;;;5.88;;
11829;SDS011;5972;42.134;24.718;2022-08-21T13:45:11;10.45;;;5.25;;
11829;SDS011;5972;42.134;24.718;2022-08-21T13:47:41;6.30;;;5.70;;
11829;SDS011;5972;42.134;24.718;2022-08-21T13:50:10;6.00;;;5.35;;
11829;SDS011;5972;42.134;24.718;2022-08-21T13:52:46;7.32;;;4.90;;
11829;SDS011;5972;42.134;24.718;2022-08-21T13:55:16;7.15;;;5.40;;
11829;SDS011;5972;42.134;24.718;2022-08-21T13:57:45;9.07;;;5.07;;
11829;SDS011;5972;42.134;24.718;2022-08-21T14:00:14;7.75;;;5.30;;
11829;SDS011;5972;42.134;24.718;2022-08-21T14:02:44;10.50;;;5.30;;
11829;SDS011;5972;42.134;24.718;2022-08-21T14:05:15;6.55;;;4.95;;
11829;SDS011;5972;42.134;24.718;2022-08-21T14:07:45;5.10;;;4.60;;
11829;SDS011;5972;42.134;24.718;2022-08-21T14:10:15;6.75;;;4.57;;
11829;SDS011;5972;42.134;24.718;2022-08-21T14:12:47;10.10;;;5.38;;
11829;SDS011;5972;42.134;24.718;2022-08-21T14:15:17;10.57;;;4.80;;
11829;SDS011;5972;42.134;24.718;2022-08-21T14:17:49;5.55;;;4.72;;
11829;SDS011;5972;42.134;24.718;2022-08-21T14:20:25;7.20;;;4.97;;
11829;SDS011;5972;42.134;24.718;2022-08-21T14:22:54;6.22;;;4.50;;
11829;SDS011;5972;42.134;24.718;2022-08-21T14:25:28;6.68;;;4.97;;
11829;SDS011;5972;42.134;24.718;2022-08-21T14:28:11;6.95;;;5.18;;
11829;SDS011;5972;42.134;24.718;2022-08-21T14:30:45;7.43;;;4.97;;
11829;SDS011;5972;42.134;24.718;2022-08-21T14:33:13;8.32;;;5.43;;
11829;SDS011;5972;42.134;24.718;2022-08-21T14:35:46;5.95;;;5.35;;
11829;SDS011;5972;42.134;24.718;2022-08-21T14:38:14;7.03;;;5.20;;
11829;SDS011;5972;42.134;24.718;2022-08-21T14:40:41;9.00;;;5.90;;
11829;SDS011;5972;42.134;24.718;2022-08-21T14:43:11;8.10;;;5.80;;
11829;SDS011;5972;42.134;24.718;2022-08-21T14:45:38;9.00;;;5.90;;
11829;SDS011;5972;42.134;24.718;2022-08-21T14:48:06;8.65;;;5.60;;
11829;SDS011;5972;42.134;24.718;2022-08-21T14:50:33;8.75;;;6.85;;
11829;SDS011;5972;42.134;24.718;2022-08-21T14:53:00;8.82;;;5.70;;
11829;SDS011;5972;42.134;24.718;2022-08-21T14:55:28;9.10;;;5.78;;